Traditional Chinese Simplified Chinese
Daily Extract of Hong Kong Observatory for Lunar New Year
dotted Line

Climatological Information for Lunar New Year
(Period: 1947 - 2017)

[1st day of the 1st lunar month]

  1. Table of Daily Maximum Air Temperature recorded at Hong Kong Observatoy ( Annual Data  /  30-year Normals )
  2. Table of Daily Mean Temperature recorded at Hong Kong Observatoy ( Annual Data  /  30-year Normals )
  3. Table of Daily Minimum Air Temperature recorded at Hong Kong Observatoy ( Annual Data  /  30-year Normals )
  4. Table of Daily Mean Relative Humidity recorded at Hong Kong Observatoy ( Annual Data  /  30-year Normals )
  5. Table of Daily Total Rainfall recorded at Hong Kong Observatoy ( Annual Data  /  30-year Normals )
  6. Table of Daily Mean Cloud Amount recorded at Hong Kong Observatoy ( Annual Data  /  30-year Normals )

Date
(yyyy-mm-dd)
Daily Maximum Air Temperature recorded at
Hong Kong Observatory
(°C)
D-3 D-2 D-1 Day(D) D+1 D+2 D+3
1947-01-22 17.8 17.3 17.2 16.4 19.6 16.1 16.2
1948-02-10 15.9 13.6 10.7 14.2 16.9 17.8 21.4
1949-01-29 18.9 19.1 20.0 19.9 21.2 23.3 22.4
1950-02-17 14.0 10.8 9.8 9.8 14.4 12.9 17.7
1951-02-06 18.7 19.4 19.8 17.4 16.5 18.2 21.7
1952-01-27 20.6 19.1 17.9 19.6 21.8 24.2 19.9
1953-02-14 23.6 23.7 27.8 21.1 18.2 17.9 18.4
1954-02-03 20.2 20.3 18.5 19.0 17.4 17.7 15.2
1955-01-24 17.4 19.0 18.7 18.9 21.3 19.1 16.2
1956-02-12 20.7 24.7 19.2 15.8 14.8 15.7 18.4
1957-01-31 17.6 21.7 21.3 16.4 15.8 18.7 22.3
1958-02-18 16.6 16.7 15.7 16.6 15.8 16.7 19.9
1959-02-08 20.5 23.4 23.9 18.8 18.0 15.3 17.2
1960-01-28 12.9 14.4 15.7 17.1 13.7 16.3 20.8
1961-02-15 18.6 18.4 18.6 16.4 15.3 14.6 14.6
1962-02-05 17.4 18.4 17.3 18.3 20.9 20.5 22.3
1963-01-25 18.1 19.2 20.7 19.4 19.5 19.6 20.2
1964-02-13 19.6 16.8 18.1 18.7 19.3 23.3 20.7
1965-02-02 22.5 19.3 20.9 22.0 16.9 17.3 21.4
1966-01-21 20.8 19.9 19.9 20.1 20.7 22.5 20.0
1967-02-09 19.7 19.8 20.6 17.5 16.8 14.2 13.3
1968-01-30 21.5 19.3 24.2 23.5 17.9 14.6 11.8
1969-02-17 24.5 19.6 24.7 19.1 18.9 22.1 20.2
1970-02-06 22.0 20.9 19.2 18.0 23.0 25.6 19.2
1971-01-27 15.0 16.1 16.4 15.4 13.4 10.3 7.9
1972-02-15 17.1 18.8 15.8 16.9 23.2 23.3 21.9
1973-02-03 20.7 23.6 20.0 22.0 24.4 24.1 24.2
1974-01-23 18.6 23.8 20.2 23.8 18.5 20.0 15.4
1975-02-11 16.2 14.3 18.0 14.6 18.5 15.9 19.2
1976-01-31 20.9 22.1 17.3 16.7 17.2 19.1 18.6
1977-02-18 17.7 17.4 14.3 14.6 16.9 20.9 18.8
1978-02-07 20.2 21.7 23.7 20.0 21.8 24.9 24.9
1979-01-28 21.9 22.7 22.8 23.4 23.1 18.5 13.4
1980-02-16 17.5 18.9 19.7 18.6 16.8 23.0 23.3
1981-02-05 19.5 21.2 16.6 18.8 20.6 17.3 20.9
1982-01-25 20.8 20.8 22.8 24.6 20.3 19.3 17.6
1983-02-13 15.5 15.4 13.9 13.8 15.4 14.9 16.5
1984-02-02 14.8 14.0 14.2 16.3 13.3 16.1 16.2
1985-02-20 15.9 18.0 17.1 15.4 14.1 11.3 12.8
1986-02-09 13.7 11.5 15.2 15.2 17.7 17.9 17.9
1987-01-29 15.1 17.6 17.4 18.6 22.9 19.3 16.8
1988-02-17 21.0 17.8 18.2 16.5 12.4 13.5 18.8
1989-02-06 14.1 16.1 16.5 16.9 18.4 16.7 13.5
1990-01-27 15.5 17.2 18.3 19.1 20.2 20.0 17.5
1991-02-15 18.0 20.6 22.5 20.8 17.9 18.3 17.9
1992-02-04 15.9 16.4 21.1 22.8 18.0 16.2 15.4
1993-01-23 12.7 11.5 13.1 12.1 13.2 15.1 15.2
1994-02-10 20.7 22.8 22.0 17.5 22.3 20.7 16.6
1995-01-31 13.8 14.2 13.5 14.3 15.1 15.3 15.9
1996-02-19 22.3 19.1 15.7 9.3 8.4 8.6 10.5
1997-02-07 17.8 17.7 16.2 16.8 16.0 16.5 16.4
1998-01-28 12.3 14.7 15.9 17.8 14.4 17.0 18.4
1999-02-16 18.7 19.6 21.7 22.5 21.3 25.2 19.6
2000-02-05 15.3 18.7 18.3 20.6 18.3 19.5 17.3
2001-01-24 20.1 21.8 20.4 20.2 21.0 16.2 13.8
2002-02-12 20.5 18.9 18.0 18.6 20.2 20.5 19.2
2003-02-01 17.0 17.0 19.9 22.2 17.8 15.9 17.7
2004-01-22 13.7 11.9 12.9 13.7 13.8 12.7 13.1
2005-02-09 19.4 24.5 21.2 21.2 24.1 17.5 20.3
2006-01-29 17.6 18.2 15.8 19.9 21.4 23.6 20.8
2007-02-18 21.7 20.8 23.7 25.3 21.7 20.2 21.2
2008-02-07 13.4 13.8 13.7 11.2 14.3 15.0 13.7
2009-01-26 19.6 14.2 15.8 16.3 13.1 17.6 19.2
2010-02-14 26.9 24.5 14.8 16.3 15.2 11.2 10.5
2011-02-03 16.5 17.0 18.6 18.6 20.9 21.7 21.8
2012-01-23 19.2 16.9 16.3 11.8 12.2 10.2 13.4
2013-02-10 20.6 18.7 15.8 18.3 19.6 22.8 20.8
2014-01-31 20.3 21.2 22.9 22.8 22.2 23.8 24.6
2015-02-19 21.6 21.6 19.4 17.9 19.1 21.0 22.0
2016-02-08 18.6 17.4 18.1 19.6 21.2 17.3 22.4
2017-01-28 20.9 19.8 21.3 18.8 21.5 23.4 17.6
Maximum 26.9 24.7 27.8 25.3 24.4 25.6 24.9
Minimum 12.3 10.8 9.8 9.3 8.4 8.6 7.9
30-year Normals
(1961-1990) 18.5 18.7 18.8 18.5 18.6 18.7 18.0
(1971-2000) 17.3 18.1 17.9 17.9 17.8 18.0 17.3
(1981-2010) 17.4 17.7 17.5 17.8 17.4 17.0 16.7
### means data not available
Column's Maximum in light red background colour
Column's Minimum in light blue background colour



Date
(yyyy-mm-dd)
Daily Mean Temperature recorded at
Hong Kong Observatory
(°C)
D-3 D-2 D-1 Day(D) D+1 D+2 D+3
1947-01-22 16.3 16.2 16.1 15.8 16.0 14.1 14.9
1948-02-10 13.3 10.8 9.4 10.8 13.5 15.7 17.9
1949-01-29 16.6 15.4 15.8 16.6 17.9 19.2 18.9
1950-02-17 10.7 9.2 8.3 7.8 10.6 11.5 13.6
1951-02-06 15.9 15.9 16.0 14.8 14.5 16.0 18.1
1952-01-27 18.6 15.4 15.3 16.5 18.1 20.3 17.9
1953-02-14 19.8 20.2 22.1 19.0 16.9 16.0 16.1
1954-02-03 15.9 16.0 15.9 16.0 14.9 13.9 13.5
1955-01-24 14.2 15.1 16.1 16.6 17.9 16.1 14.1
1956-02-12 18.3 19.4 17.1 14.5 12.7 13.8 16.6
1957-01-31 16.4 18.3 17.1 14.6 14.2 16.6 18.1
1958-02-18 13.6 14.7 13.5 13.5 13.7 14.1 15.3
1959-02-08 18.4 21.0 21.0 17.3 15.9 14.4 14.6
1960-01-28 9.4 10.8 13.3 13.9 12.0 13.6 16.0
1961-02-15 16.8 16.7 17.0 15.2 13.2 12.3 13.1
1962-02-05 13.9 15.0 14.6 15.1 16.9 17.0 18.7
1963-01-25 14.9 15.1 15.6 14.3 14.8 14.5 14.9
1964-02-13 17.0 15.8 14.4 14.7 16.1 19.1 18.0
1965-02-02 18.0 17.6 18.1 17.5 15.5 16.1 17.5
1966-01-21 18.7 17.7 16.7 16.2 17.8 18.6 16.8
1967-02-09 16.5 16.7 17.5 16.4 13.9 10.9 11.2
1968-01-30 16.7 16.4 19.0 19.0 15.5 13.4 10.8
1969-02-17 20.7 18.0 20.5 17.1 17.1 20.5 16.4
1970-02-06 18.1 17.9 16.0 15.4 17.7 20.6 16.5
1971-01-27 12.9 12.1 12.7 13.7 11.6 9.0 6.6
1972-02-15 14.3 15.6 14.4 15.3 19.6 19.6 17.8
1973-02-03 16.3 18.8 18.5 18.5 20.2 20.0 20.2
1974-01-23 16.7 18.4 17.5 19.2 17.2 16.3 13.6
1975-02-11 14.3 13.3 14.3 13.7 15.3 15.0 16.5
1976-01-31 16.7 18.2 14.8 13.4 14.0 14.7 16.0
1977-02-18 12.7 13.6 13.0 12.1 13.2 16.7 14.7
1978-02-07 17.1 18.8 19.3 19.2 19.5 21.3 21.9
1979-01-28 19.1 19.4 20.0 20.7 20.6 16.8 9.8
1980-02-16 14.6 15.5 14.9 14.8 14.7 18.2 19.4
1981-02-05 17.3 17.7 14.8 16.4 17.6 15.7 17.1
1982-01-25 18.4 18.4 19.6 20.6 18.2 17.4 16.4
1983-02-13 15.0 14.4 12.7 12.6 14.1 14.2 15.0
1984-02-02 14.1 11.9 12.9 13.8 12.1 13.4 13.7
1985-02-20 15.3 15.9 15.8 14.5 12.7 10.5 11.3
1986-02-09 11.9 10.7 11.9 13.4 14.5 14.8 15.7
1987-01-29 13.2 13.9 15.4 16.8 19.0 17.0 15.7
1988-02-17 17.7 16.6 16.3 13.6 11.2 12.0 14.1
1989-02-06 12.7 13.5 14.7 15.5 16.3 14.8 11.9
1990-01-27 13.5 14.8 15.9 16.3 17.8 18.0 16.8
1991-02-15 17.1 18.3 20.7 18.1 16.5 16.3 16.4
1992-02-04 14.9 15.3 18.2 19.4 16.4 15.5 14.2
1993-01-23 11.5 10.5 11.7 9.3 10.0 11.6 12.7
1994-02-10 18.6 19.6 19.3 16.2 19.7 18.6 15.3
1995-01-31 12.0 12.6 12.0 12.1 13.2 13.4 13.8
1996-02-19 19.6 17.9 11.1 8.2 7.2 6.9 8.9
1997-02-07 15.8 16.2 14.7 14.6 14.3 15.5 15.8
1998-01-28 11.4 12.6 15.0 14.8 13.4 15.4 16.7
1999-02-16 17.3 17.7 18.9 20.0 19.7 21.6 16.2
2000-02-05 12.8 15.7 16.2 17.0 16.2 16.4 14.6
2001-01-24 18.9 20.0 19.0 18.7 19.6 13.7 12.5
2002-02-12 18.7 18.0 16.7 16.8 17.8 18.6 17.8
2003-02-01 15.1 16.0 18.1 19.5 15.9 15.2 14.8
2004-01-22 11.9 10.6 10.3 11.7 11.8 10.6 11.1
2005-02-09 18.5 20.7 19.3 19.3 19.2 16.1 17.4
2006-01-29 15.3 15.8 15.0 17.2 19.1 20.5 19.1
2007-02-18 18.9 19.6 22.0 23.1 20.1 19.1 19.8
2008-02-07 12.1 12.6 11.3 9.9 11.7 11.3 11.8
2009-01-26 17.5 11.6 13.3 14.6 12.2 15.0 16.3
2010-02-14 25.0 16.7 13.2 15.4 12.6 10.2 9.7
2011-02-03 13.1 14.0 14.8 15.3 16.3 17.1 17.8
2012-01-23 17.4 16.2 13.4 10.5 10.9 8.7 11.2
2013-02-10 19.1 16.4 14.1 15.9 17.2 19.0 17.4
2014-01-31 17.0 17.8 18.9 19.4 20.0 20.2 20.6
2015-02-19 19.7 19.2 18.1 17.2 17.5 19.3 20.3
2016-02-08 14.8 13.6 13.7 14.8 16.7 16.6 18.8
2017-01-28 17.5 17.3 17.5 17.3 19.1 20.2 16.7
Maximum 25.0 21.0 22.1 23.1 20.6 21.6 21.9
Minimum 9.4 9.2 8.3 7.8 7.2 6.9 6.6
30-year Normals
(1961-1990) 15.8 15.9 16.0 15.8 15.9 15.9 15.3
(1971-2000) 15.2 15.6 15.6 15.5 15.5 15.6 15.0
(1981-2010) 15.7 15.5 15.5 15.6 15.3 15.0 14.8
### means data not available
Column's Maximum in light red background colour
Column's Minimum in light blue background colour



Date
(yyyy-mm-dd)
Daily Minimum Air Temperature recorded at
Hong Kong Observatory
(°C)
D-3 D-2 D-1 Day(D) D+1 D+2 D+3
1947-01-22 15.1 14.9 14.9 14.6 13.7 11.8 14.3
1948-02-10 10.9 9.0 8.1 7.7 9.4 13.7 15.7
1949-01-29 14.4 13.8 14.3 14.7 16.0 17.0 16.7
1950-02-17 8.8 7.9 6.9 5.8 6.3 10.5 11.1
1951-02-06 14.6 13.6 13.9 13.4 12.6 13.8 15.7
1952-01-27 17.1 13.5 14.0 13.9 14.7 18.3 16.5
1953-02-14 17.3 17.9 19.4 17.0 15.0 14.7 13.6
1954-02-03 13.1 12.4 14.3 14.3 13.2 10.2 11.6
1955-01-24 10.7 12.3 13.5 14.9 15.3 13.4 12.3
1956-02-12 17.1 16.6 14.9 13.4 11.1 11.6 14.4
1957-01-31 15.3 16.3 14.6 13.2 12.6 14.6 15.7
1958-02-18 11.7 13.4 11.8 11.4 11.8 12.2 11.9
1959-02-08 17.2 18.6 18.6 15.4 14.8 12.6 12.4
1960-01-28 7.5 8.1 10.8 12.3 10.9 11.4 13.3
1961-02-15 15.5 14.8 15.1 14.1 11.2 10.2 12.0
1962-02-05 11.5 12.5 12.6 13.1 14.6 15.0 15.6
1963-01-25 12.6 12.8 12.1 10.7 11.2 11.2 10.9
1964-02-13 15.6 14.0 12.4 12.6 13.9 16.2 16.2
1965-02-02 16.6 15.8 16.4 15.5 14.6 14.8 13.3
1966-01-21 17.1 16.4 15.2 13.8 16.1 17.0 15.6
1967-02-09 14.3 15.3 16.2 15.5 10.6 8.1 8.6
1968-01-30 14.1 14.7 15.7 16.5 14.0 10.8 9.4
1969-02-17 18.5 17.0 17.0 15.8 16.0 18.5 14.4
1970-02-06 15.5 15.2 14.4 13.7 14.6 17.4 14.9
1971-01-27 10.3 8.6 9.0 12.7 9.5 7.9 5.6
1972-02-15 12.1 12.9 13.6 13.8 16.3 17.1 15.9
1973-02-03 13.6 14.8 16.6 16.2 17.7 17.8 17.8
1974-01-23 14.8 14.6 15.7 16.1 15.8 14.7 12.2
1975-02-11 12.8 12.6 12.4 13.0 13.0 14.0 14.7
1976-01-31 14.2 15.6 12.4 10.1 11.6 11.5 13.6
1977-02-18 9.3 11.5 12.0 10.6 11.2 13.4 12.0
1978-02-07 15.1 16.9 17.7 18.3 18.4 19.4 20.4
1979-01-28 16.7 16.8 18.3 18.8 18.0 12.8 6.8
1980-02-16 12.1 12.5 11.3 12.9 13.1 15.1 16.8
1981-02-05 16.1 15.9 12.7 14.5 15.4 14.6 15.0
1982-01-25 16.6 17.5 17.7 18.0 16.9 16.1 15.8
1983-02-13 14.6 13.2 11.4 10.9 13.3 13.5 13.7
1984-02-02 13.1 9.7 11.4 12.4 11.3 11.5 12.1
1985-02-20 14.5 14.2 15.1 13.6 10.8 9.3 8.9
1986-02-09 10.0 9.8 8.7 12.2 12.1 12.5 13.7
1987-01-29 12.0 10.4 13.4 14.8 16.3 15.6 14.9
1988-02-17 16.1 15.5 15.3 11.6 10.3 10.1 10.4
1989-02-06 11.8 11.7 13.5 14.4 14.7 13.1 10.3
1990-01-27 11.4 12.3 14.4 14.1 16.0 16.5 16.1
1991-02-15 16.5 16.8 18.5 15.8 15.7 15.1 15.1
1992-02-04 13.9 14.3 16.2 17.8 15.5 14.9 12.3
1993-01-23 10.3 9.1 10.4 7.9 7.4 8.0 10.1
1994-02-10 17.7 17.6 17.4 15.4 16.4 16.2 14.7
1995-01-31 10.5 10.9 11.0 9.2 11.2 11.9 12.6
1996-02-19 17.4 15.7 8.5 6.9 5.9 5.8 7.1
1997-02-07 14.1 15.2 13.4 12.4 12.3 14.1 15.1
1998-01-28 10.4 10.5 13.9 13.0 12.2 13.9 14.7
1999-02-16 15.7 15.9 17.0 18.1 18.3 19.1 13.9
2000-02-05 9.7 13.3 15.0 14.9 13.8 14.3 12.3
2001-01-24 18.2 18.5 17.6 17.7 16.0 11.4 11.2
2002-02-12 17.0 16.8 15.7 15.1 15.9 16.7 16.7
2003-02-01 13.1 15.0 16.6 17.7 14.9 14.7 13.0
2004-01-22 10.5 8.8 8.0 9.1 9.0 9.0 8.5
2005-02-09 17.8 18.1 17.9 17.6 16.6 14.8 15.7
2006-01-29 12.8 13.5 13.5 15.2 17.3 18.3 17.9
2007-02-18 17.5 17.6 20.5 21.3 18.4 17.9 18.5
2008-02-07 10.5 11.9 9.8 8.2 9.8 8.1 10.8
2009-01-26 14.2 10.7 10.7 12.7 11.4 13.1 14.7
2010-02-14 23.9 11.9 11.6 14.6 10.8 9.1 8.9
2011-02-03 10.9 11.9 12.3 13.2 13.5 14.6 14.8
2012-01-23 16.4 15.9 10.6 9.4 8.9 7.4 9.0
2013-02-10 18.1 14.4 11.9 14.0 16.0 16.3 15.6
2014-01-31 14.8 15.6 15.9 16.4 18.3 17.5 17.4
2015-02-19 17.8 18.2 17.1 16.4 15.9 17.6 18.9
2016-02-08 12.3 11.2 9.9 11.6 12.7 15.3 17.2
2017-01-28 15.9 16.2 14.4 16.4 18.1 17.4 15.9
Maximum 23.9 18.6 20.5 21.3 18.4 19.4 20.4
Minimum 7.5 7.9 6.9 5.8 5.9 5.8 5.6
30-year Normals
(1961-1990) 14.0 13.9 14.0 14.0 14.0 13.9 13.3
(1971-2000) 13.4 13.5 13.8 13.7 13.7 13.7 13.2
(1981-2010) 14.3 13.7 13.9 13.9 13.5 13.3 13.2
### means data not available
Column's Maximum in light red background colour
Column's Minimum in light blue background colour



Date
(yyyy-mm-dd)
Daily Mean Relative Humidity recorded at
Hong Kong Observatory
(%)
D-3 D-2 D-1 Day(D) D+1 D+2 D+3
1947-01-22 94 94 88 95 84 85 88
1948-02-10 77 73 81 80 76 80 88
1949-01-29 76 78 83 90 96 94 94
1950-02-17 87 90 73 58 58 57 62
1951-02-06 79 77 80 78 78 87 90
1952-01-27 77 77 78 75 79 82 91
1953-02-14 86 92 88 95 90 89 95
1954-02-03 55 69 89 82 80 65 68
1955-01-24 65 61 67 78 87 86 75
1956-02-12 74 79 92 76 85 95 90
1957-01-31 88 89 77 76 86 88 90
1958-02-18 68 67 77 79 72 56 74
1959-02-08 98 94 92 78 74 76 83
1960-01-28 63 62 61 60 78 83 87
1961-02-15 84 85 88 84 89 84 92
1962-02-05 68 70 70 55 56 68 72
1963-01-25 62 52 41 29 29 34 50
1964-02-13 91 85 78 82 80 81 89
1965-02-02 87 83 80 67 72 77 85
1966-01-21 83 76 71 71 79 80 76
1967-02-09 58 71 73 84 87 66 67
1968-01-30 71 80 76 82 92 92 85
1969-02-17 81 89 74 92 96 95 94
1970-02-06 66 67 68 69 72 70 80
1971-01-27 83 64 56 69 80 74 81
1972-02-15 75 82 86 91 88 91 88
1973-02-03 76 76 80 83 82 86 85
1974-01-23 80 80 80 74 86 78 82
1975-02-11 89 86 75 82 83 89 85
1976-01-31 75 73 56 61 62 57 73
1977-02-18 62 58 53 69 60 67 47
1978-02-07 77 88 90 92 92 91 90
1979-01-28 82 84 86 88 92 90 67
1980-02-16 74 71 67 76 80 76 83
1981-02-05 80 78 74 72 70 67 66
1982-01-25 82 90 77 80 80 75 77
1983-02-13 94 96 93 86 80 93 91
1984-02-02 74 71 72 82 82 79 78
1985-02-20 89 88 87 92 89 88 83
1986-02-09 79 75 67 65 60 65 69
1987-01-29 52 52 65 69 73 74 77
1988-02-17 84 80 81 69 67 75 81
1989-02-06 72 71 75 77 81 84 86
1990-01-27 69 75 77 77 75 94 94
1991-02-15 87 91 96 77 78 82 74
1992-02-04 67 78 90 90 91 86 91
1993-01-23 82 78 79 87 62 58 58
1994-02-10 92 83 70 82 92 89 86
1995-01-31 86 81 82 75 59 57 59
1996-02-19 90 86 76 82 81 86 81
1997-02-07 84 82 92 91 85 86 84
1998-01-28 71 81 91 68 63 75 85
1999-02-16 68 67 70 74 82 72 61
2000-02-05 83 83 84 83 72 69 61
2001-01-24 84 84 92 91 95 80 80
2002-02-12 84 74 67 68 76 75 79
2003-02-01 68 74 82 82 76 80 65
2004-01-22 92 87 59 64 73 43 52
2005-02-09 93 87 94 85 85 77 80
2006-01-29 64 71 93 92 83 80 86
2007-02-18 88 93 90 84 92 91 87
2008-02-07 79 87 73 80 66 55 62
2009-01-26 70 53 60 66 78 83 82
2010-02-14 81 79 89 97 93 88 87
2011-02-03 61 70 64 75 75 69 61
2012-01-23 86 87 84 84 90 88 90
2013-02-10 87 86 73 79 80 73 71
2014-01-31 75 72 75 77 83 76 71
2015-02-19 90 86 79 78 84 90 93
2016-02-08 66 39 36 52 54 64 86
2017-01-28 76 75 69 79 88 90 87
Maximum 98 96 96 97 96 95 95
Minimum 52 39 36 29 29 34 47
30-year Normals
(1961-1990) 77 77 74 76 77 78 79
(1971-2000) 79 78 78 79 78 78 77
(1981-2010) 80 79 80 80 78 77 77
### means data not available
Column's Maximum in light red background colour
Column's Minimum in light blue background colour



Date
(yyyy-mm-dd)
Daily Total Rainfall recorded at
Hong Kong Observatory
(mm)
D-3 D-2 D-1 Day(D) D+1 D+2 D+3
1947-01-22 Trace Trace Trace 12.5 0.3 1.2 1.9
1948-02-10 Trace - 0.2 0.2 - Trace -
1949-01-29 - - - - Trace - -
1950-02-17 11.5 1.2 Trace Trace - - -
1951-02-06 - - - - - 4.7 -
1952-01-27 - 0.1 - - - - 1.0
1953-02-14 - - - Trace Trace 2.6 9.6
1954-02-03 - Trace 11.9 0.5 0.1 - -
1955-01-24 - - - Trace - - Trace
1956-02-12 - - Trace Trace 5.4 11.9 Trace
1957-01-31 0.1 - Trace Trace Trace Trace Trace
1958-02-18 - - 13.9 8.9 - - -
1959-02-08 Trace 0.1 36.8 2.5 0.3 0.3 Trace
1960-01-28 - - Trace - 0.3 5.6 6.6
1961-02-15 Trace Trace Trace - 1.3 3.0 8.8
1962-02-05 - - - - - - -
1963-01-25 - - - - - - -
1964-02-13 Trace - Trace 0.2 - 0.2 0.3
1965-02-02 Trace Trace - - - 0.1 8.0
1966-01-21 Trace Trace Trace - Trace Trace Trace
1967-02-09 - 9.3 Trace Trace 5.7 0.2 -
1968-01-30 - - Trace - 2.9 14.2 9.8
1969-02-17 - Trace - 0.2 0.6 3.0 3.2
1970-02-06 - - - Trace - - -
1971-01-27 12.6 1.1 Trace Trace Trace 0.3 1.9
1972-02-15 - 3.9 Trace Trace - - Trace
1973-02-03 - - - - - - -
1974-01-23 - - - - - Trace 1.4
1975-02-11 9.1 2.1 Trace 2.2 0.6 15.9 1.2
1976-01-31 - - - - - - -
1977-02-18 - - Trace - - - -
1978-02-07 - - - Trace Trace - -
1979-01-28 - - - - 4.4 11.8 10.0
1980-02-16 - - - - 2.8 Trace -
1981-02-05 - - Trace - Trace Trace -
1982-01-25 1.0 0.4 - - Trace - -
1983-02-13 4.4 34.1 38.5 7.8 0.6 18.5 17.1
1984-02-02 0.3 0.6 Trace 0.6 0.1 Trace -
1985-02-20 Trace 11.6 0.1 4.3 5.8 13.9 6.8
1986-02-09 0.9 Trace - Trace Trace - -
1987-01-29 - - - - - - -
1988-02-17 - Trace Trace - - 3.0 8.6
1989-02-06 - - Trace - - Trace 2.7
1990-01-27 Trace 0.9 Trace - Trace 9.6 15.8
1991-02-15 Trace Trace 6.4 0.1 1.1 0.4 Trace
1992-02-04 - Trace - Trace Trace Trace 27.6
1993-01-23 - - - 13.3 - - -
1994-02-10 Trace Trace - 0.2 10.7 3.2 Trace
1995-01-31 5.0 0.9 1.3 1.8 Trace Trace -
1996-02-19 0.5 0.1 1.6 4.1 3.0 7.4 0.2
1997-02-07 - Trace 24.7 10.8 1.2 Trace Trace
1998-01-28 Trace - Trace Trace - - -
1999-02-16 - - - - - - Trace
2000-02-05 1.6 0.6 Trace - - - -
2001-01-24 - - 0.3 Trace 2.3 27.3 6.4
2002-02-12 - - - - - - -
2003-02-01 - Trace - Trace - Trace -
2004-01-22 30.7 2.5 - - 0.7 Trace -
2005-02-09 0.1 0.1 0.3 Trace Trace - -
2006-01-29 - Trace 6.8 2.1 - - -
2007-02-18 0.6 Trace Trace Trace Trace 1.0 0.2
2008-02-07 Trace 1.6 0.3 0.5 - - -
2009-01-26 - - - - Trace Trace -
2010-02-14 Trace Trace 1.7 2.3 0.6 0.6 1.0
2011-02-03 Trace - - - - - -
2012-01-23 - Trace Trace 1.3 4.5 2.2 0.8
2013-02-10 Trace 0.2 Trace Trace Trace Trace Trace
2014-01-31 - - - - - - -
2015-02-19 - Trace Trace Trace Trace 0.2 15.6
2016-02-08 - - - - - 0.2 Trace
2017-01-28 - - - 0.3 2.4 1.2 0.5
Maximum 30.7 34.1 38.5 13.3 10.7 27.3 27.6
30-year Normals
(1961-1990) 0.9 2.1 1.3 0.5 0.8 3.1 3.2
(1971-2000) 1.2 1.9 2.4 1.5 1.0 2.8 3.1
(1981-2010) 1.5 1.8 2.7 1.6 0.9 2.8 2.9
### means data not available
Column's Maximum in light red background colour
Column's Minimum in light blue background colour



Date
(yyyy-mm-dd)
Daily Mean Cloud Amount recorded at
Hong Kong Observatory
(%)
D-3 D-2 D-1 Day(D) D+1 D+2 D+3
1947-01-22 ### ### ### ### ### ### ###
1948-02-10 ### ### ### ### ### ### ###
1949-01-29 11 27 72 91 94 77 76
1950-02-17 99 99 100 100 84 99 45
1951-02-06 61 17 23 89 90 82 71
1952-01-27 72 98 88 16 32 65 94
1953-02-14 61 60 61 98 92 93 100
1954-02-03 1 54 98 81 59 28 85
1955-01-24 5 15 49 73 31 83 41
1956-02-12 46 27 89 94 100 98 81
1957-01-31 89 70 70 68 95 81 91
1958-02-18 70 85 95 91 72 26 11
1959-02-08 97 92 84 98 94 96 94
1960-01-28 92 87 96 92 91 94 81
1961-02-15 95 97 94 98 97 95 96
1962-02-05 12 49 13 11 4 2 81
1963-01-25 13 1 0 0 0 0 7
1964-02-13 80 95 70 58 81 71 87
1965-02-02 51 70 54 83 85 91 93
1966-01-21 81 79 94 87 86 75 68
1967-02-09 60 91 81 86 97 96 89
1968-01-30 43 44 33 55 94 100 100
1969-02-17 36 92 40 86 97 92 97
1970-02-06 58 34 76 86 50 36 82
1971-01-27 94 66 31 86 99 95 100
1972-02-15 73 71 99 97 64 79 79
1973-02-03 23 29 76 48 42 49 35
1974-01-23 75 8 41 30 82 81 93
1975-02-11 100 99 93 96 96 100 41
1976-01-31 72 61 61 20 42 11 50
1977-02-18 13 80 95 66 75 30 60
1978-02-07 86 79 53 94 97 80 76
1979-01-28 20 48 50 59 82 100 82
1980-02-16 39 30 34 51 81 53 38
1981-02-05 55 62 94 41 51 91 57
1982-01-25 75 90 40 50 55 77 88
1983-02-13 100 98 99 91 93 100 84
1984-02-02 99 98 99 97 100 84 96
1985-02-20 99 98 97 100 100 97 100
1986-02-09 99 99 57 89 39 36 59
1987-01-29 86 27 45 56 41 22 53
1988-02-17 43 86 89 84 98 99 56
1989-02-06 93 85 56 77 79 90 95
1990-01-27 78 71 82 41 82 97 98
1991-02-15 95 98 95 70 89 92 88
1992-02-04 88 96 78 57 96 100 95
1993-01-23 100 100 98 96 60 3 49
1994-02-10 93 84 59 96 92 92 97
1995-01-31 89 96 97 91 88 63 79
1996-02-19 95 100 98 96 100 100 100
1997-02-07 95 95 99 96 93 86 97
1998-01-28 100 100 100 69 91 66 67
1999-02-16 21 20 14 19 76 42 94
2000-02-05 88 88 86 28 13 54 28
2001-01-24 76 85 99 100 93 89 91
2002-02-12 76 88 70 16 21 47 64
2003-02-01 28 90 76 78 89 88 53
2004-01-22 90 91 40 39 93 53 46
2005-02-09 92 54 88 89 82 86 60
2006-01-29 68 83 96 71 59 62 56
2007-02-18 88 88 83 74 82 89 90
2008-02-07 88 89 86 88 88 45 86
2009-01-26 81 88 87 88 88 81 79
2010-02-14 85 87 92 96 92 88 88
2011-02-03 40 58 31 32 4 6 27
2012-01-23 86 88 96 96 99 89 94
2013-02-10 88 88 88 87 70 57 60
2014-01-31 21 2 5 16 34 16 3
2015-02-19 68 79 86 88 88 86 90
2016-02-08 18 13 2 0 29 77 80
2017-01-28 42 45 13 78 88 88 88
Maximum 100 100 100 100 100 100 100
Minimum 1 1 0 0 0 0 3
30-year Normals
(1961-1990) 65 68 65 67 73 71 75
(1971-2000) 76 75 74 70 77 72 74
(1981-2010) 82 84 80 73 77 74 76
### means data not available
Column's Maximum in light red background colour
Column's Minimum in light blue background colour